Latest Weather Observations for Archerfield

IDQ60801

Issued at 4:35 pm EST Tuesday 29 July 2014 (issued every 30 minutes, with the page automatically refreshed every 10 minutes)

About weather observations | Map of weather stations | Latest weather observations for QLD | Other Formats
Station Details ID: 040211 Name: ARCHERFIELD AIRPORT Lat: -27.57 Lon: 153.01 Height: 12.5 m
Data from the previous 72 hours. | See also: Recent months at Archerfield
Date/Time
EST
Temp
°C
App
Temp
°C
Dew
Point
Rel
Hum
%
Delta-T
°C
Wind Press
QNH
hPa
Press
MSL
hPa
Rain
since 9 am
mm
Dir
 
Spd
km/h
Gust
km/h
Spd
kts
Gust
kts
29/04:30pm 23.5 18.7 -0.1 21 10.7 W 15 19 8 10 1018.9 - 0.0
29/04:00pm 24.1 18.9 -0.2 20 11.0 W 17 24 9 13 1018.9 - 0.0
29/03:30pm 24.3 18.8 0.6 21 11.0 W 19 26 10 14 1018.8 - 0.0
29/03:00pm 24.3 18.5 -0.1 20 11.1 W 20 33 11 18 1018.9 1018.8 0.0
29/02:30pm 24.3 18.7 -0.1 20 11.1 SW 19 32 10 17 1019.0 - 0.0
29/02:00pm 24.0 19.9 2.2 24 10.4 SW 13 20 7 11 1019.2 - 0.0
29/01:30pm 23.9 19.6 3.2 26 10.0 WSW 15 20 8 11 1019.3 - 0.0
29/01:00pm 23.5 18.6 4.0 28 9.6 SW 19 28 10 15 1019.9 - 0.0
29/12:30pm 21.8 17.0 2.5 28 9.1 SW 17 24 9 13 1020.4 - 0.0
29/12:00pm 21.4 17.2 3.6 31 8.5 WSW 15 22 8 12 1021.1 1021.0 0.0
29/11:30am 20.4 15.5 2.3 30 8.4 SW 17 24 9 13 1021.6 - 0.0
29/11:00am 19.7 15.9 3.8 35 7.6 SW 13 20 7 11 1022.1 - 0.0
29/10:30am 18.1 14.8 4.3 40 6.5 SW 11 19 6 10 1022.5 - 0.0
29/10:00am 17.0 14.7 5.0 45 5.7 W 6 11 3 6 1022.8 - 0.0
29/09:30am 15.3 12.7 6.1 54 4.4 WSW 9 13 5 7 1023.0 - 0.0
29/09:00am 13.4 11.3 6.5 63 3.3 SW 7 11 4 6 1023.1 1023.0 0.0
29/08:30am 11.2 9.0 6.3 72 2.3 SSE 7 9 4 5 1023.0 - 0.0
29/08:00am 9.6 7.0 6.1 79 1.6 S 9 11 5 6 1022.8 - 0.0
29/07:30am 7.7 5.6 6.0 89 0.8 SSE 6 7 3 4 1022.6 - 0.0
29/07:00am 4.9 2.2 3.7 92 0.5 SSE 7 7 4 4 1022.3 - 0.0
29/06:30am 4.6 2.8 3.3 91 0.5 SSE 2 7 1 4 1022.0 - 0.0
29/06:00am 4.9 3.5 3.6 91 0.5 CALM 0 4 0 2 1021.8 1021.7 0.0
29/05:30am 4.7 2.8 2.7 87 0.8 SSW 2 6 1 3 1021.6 - 0.0
29/05:00am 6.0 4.6 3.7 85 1.0 CALM 0 0 0 0 1021.2 - 0.0
29/04:30am 6.6 5.4 4.8 88 0.8 CALM 0 0 0 0 1020.9 - 0.0
29/04:00am 6.8 4.6 5.4 91 0.6 N 6 7 3 4 1020.7 - 0.0
29/03:30am 5.6 3.3 4.6 93 0.4 WNW 6 7 3 4 1020.7 - 0.0
29/03:00am 5.9 4.7 4.4 90 0.6 CALM 0 0 0 0 1020.8 1020.7 0.0
29/02:30am 6.4 3.4 3.9 84 1.1 SW 9 9 5 5 1020.8 - 0.0
29/02:00am 8.7 6.6 6.7 87 0.9 W 7 9 4 5 1020.9 - 0.0
29/01:30am 8.4 7.8 7.3 93 0.5 CALM 0 0 0 0 1021.0 - 0.0
29/01:00am 8.2 7.4 6.3 88 0.9 CALM 0 0 0 0 1021.3 - 0.0
29/12:30am 9.2 8.4 8.0 92 0.6 SSW 2 6 1 3 1021.6 - 0.0
29/12:00am 8.8 8.1 7.1 89 0.8 W 0 0 0 0 1021.8 1021.7 0.0
 
Date/Time
EST
Temp
°C
App
Temp
°C
Dew
Point
Rel
Hum
%
Delta-T
°C
Wind Press
QNH
hPa
Press
MSL
hPa
Rain
since 9 am
mm
Dir
 
Spd
km/h
Gust
km/h
Spd
kts
Gust
kts
28/11:30pm 9.0 8.4 7.5 90 0.7 CALM 0 0 0 0 1022.0 - 0.0
28/11:00pm 10.5 8.6 9.1 91 0.7 SSW 9 11 5 6 1022.1 - 0.0
28/10:30pm 10.5 10.2 8.6 88 0.9 CALM 0 0 0 0 1022.1 - 0.0
28/10:00pm 13.0 13.2 10.7 86 1.2 CALM 0 0 0 0 1022.1 - 0.0
28/09:30pm 13.6 13.9 10.8 83 1.5 CALM 0 0 0 0 1022.1 - 0.0
28/09:00pm 13.3 12.3 10.3 82 1.5 NNW 6 7 3 4 1022.0 1021.9 0.0
28/08:30pm 13.4 12.3 10.8 84 1.4 N 7 11 4 6 1021.9 - 0.0
28/08:00pm 12.9 11.5 9.7 81 1.6 N 7 9 4 5 1021.6 - 0.0
28/07:30pm 13.5 11.4 9.9 79 1.9 N 11 13 6 7 1021.4 - 0.0
28/07:00pm 13.7 11.2 9.6 76 2.1 N 13 13 7 7 1021.3 - 0.0
28/06:30pm 14.8 12.9 9.2 69 2.9 N 9 11 5 6 1021.1 - 0.0
28/06:00pm 15.8 13.2 9.5 66 3.3 NNE 13 17 7 9 1020.8 1020.7 0.0
28/05:30pm 16.7 13.7 9.1 61 3.9 N 15 20 8 11 1020.6 - 0.0
28/05:00pm 18.6 15.1 8.8 53 5.1 NNE 17 24 9 13 1020.1 - 0.0
28/04:30pm 21.9 17.3 3.6 30 8.8 NW 17 24 9 13 1019.9 - 0.0
28/04:00pm 22.4 17.9 4.0 30 9.0 NW 17 22 9 12 1019.8 - 0.0
28/03:30pm 22.5 19.4 5.4 33 8.5 W 11 20 6 11 1019.9 - 0.0
28/03:00pm 22.6 19.0 5.1 32 8.7 W 13 22 7 12 1020.1 1020.0 0.0
28/02:30pm 22.4 17.8 5.4 33 8.5 WNW 19 26 10 14 1020.4 - 0.0
28/02:00pm 22.5 18.1 5.0 32 8.7 WSW 17 26 9 14 1020.7 - 0.0
28/01:30pm 22.3 17.0 4.8 32 8.6 WSW 22 32 12 17 1020.9 - 0.0
28/01:00pm 22.3 17.1 5.3 33 8.5 WSW 22 33 12 18 1021.2 - 0.0
28/12:30pm 21.5 18.0 5.4 35 8.0 WSW 13 19 7 10 1021.7 - 0.0
28/12:00pm 20.5 17.5 9.4 49 5.9 WSW 15 24 8 13 1022.4 1022.3 0.0
28/11:30am 19.6 17.0 9.2 51 5.5 W 13 19 7 10 1023.1 - 0.0
28/11:00am 18.9 15.6 9.4 54 5.0 SW 17 24 9 13 1023.7 - 0.0
28/10:30am 17.6 14.9 9.0 57 4.5 WSW 13 17 7 9 1024.3 - 0.0
28/10:00am 16.2 12.6 8.4 60 4.0 SW 17 20 9 11 1024.6 - 0.0
28/09:30am 15.3 12.4 8.3 63 3.5 SW 13 17 7 9 1024.6 - 0.0
28/09:00am 14.1 12.5 8.9 71 2.6 SW 7 11 4 6 1024.4 1024.3 0.0
28/08:30am 12.2 10.2 8.5 78 1.8 SW 9 15 5 8 1024.4 - 0.0
28/08:00am 10.4 9.7 8.5 88 0.9 S 2 6 1 3 1024.1 - 0.0
28/07:30am 8.8 7.6 8.0 95 0.4 S 4 6 2 3 1023.9 - 0.0
28/07:00am 6.8 4.7 5.9 94 0.4 S 6 7 3 4 1023.7 - 0.0
28/06:30am 6.4 5.4 5.5 94 0.4 CALM 0 0 0 0 1023.3 - 0.0
28/06:00am 6.9 5.9 5.8 93 0.5 CALM 0 0 0 0 1023.4 1023.3 0.0
28/05:30am 7.3 6.5 6.6 95 0.3 CALM 0 0 0 0 1023.4 - 0.0
28/05:00am 7.1 5.4 5.9 92 0.5 S 4 6 2 3 1023.4 - 0.0
28/04:30am 7.9 6.0 6.8 93 0.5 SSE 6 7 3 4 1023.2 - 0.0
28/04:00am 8.2 7.6 7.4 95 0.4 CALM 0 0 0 0 1023.2 - 0.0
28/03:30am 7.8 7.1 6.9 94 0.4 CALM 0 0 0 0 1023.2 - 0.0
28/03:00am 8.7 6.4 7.6 93 0.5 S 9 9 5 5 1023.1 1023.0 0.0
28/02:30am 8.3 6.4 7.5 95 0.4 S 7 9 4 5 1023.0 - 0.0
28/02:00am 8.4 6.4 7.3 93 0.5 S 7 9 4 5 1023.1 - 0.0
28/01:30am 9.3 7.5 8.1 92 0.6 SSE 7 9 4 5 1023.2 - 0.0
28/01:00am 8.8 7.9 7.6 92 0.6 SSE 2 6 1 3 1023.5 - 0.0
28/12:30am 9.0 7.4 7.9 93 0.5 S 6 7 3 4 1023.6 - 0.0
28/12:00am 9.0 7.0 7.3 89 0.8 S 7 9 4 5 1023.4 1023.3 0.0
 
Date/Time
EST
Temp
°C
App
Temp
°C
Dew
Point
Rel
Hum
%
Delta-T
°C
Wind Press
QNH
hPa
Press
MSL
hPa
Rain
since 9 am
mm
Dir
 
Spd
km/h
Gust
km/h
Spd
kts
Gust
kts
27/11:30pm 10.7 9.2 9.1 90 0.8 S 7 7 4 4 1023.6 - 0.0
27/11:00pm 10.9 10.6 8.7 86 1.1 CALM 0 0 0 0 1023.8 - 0.0
27/10:30pm 11.1 10.9 9.2 88 0.9 CALM 0 0 0 0 1023.9 - 0.0
27/10:00pm 11.3 10.1 8.0 80 1.6 SSE 4 7 2 4 1023.9 - 0.0
27/09:30pm 12.5 11.5 9.0 79 1.8 SSE 4 6 2 3 1023.8 - 0.0
27/09:00pm 13.7 12.5 9.4 75 2.2 NNW 6 7 3 4 1023.8 1023.7 0.0
27/08:30pm 14.4 13.0 9.6 73 2.5 N 7 11 4 6 1023.6 - 0.0
27/08:00pm 14.3 14.2 9.3 72 2.6 CALM 0 2 0 1 1023.3 - 0.0
27/07:30pm 15.2 13.9 9.8 70 2.8 NE 7 9 4 5 1022.9 - 0.0
27/07:00pm 16.2 14.8 9.6 65 3.4 E 7 11 4 6 1022.8 - 0.0
27/06:30pm 16.4 14.6 9.6 64 3.5 ENE 9 13 5 7 1022.6 - 0.0
27/06:00pm 17.2 15.1 9.6 61 4.0 ENE 11 17 6 9 1022.4 1022.3 0.0
27/05:30pm 18.0 15.1 9.6 58 4.4 ENE 15 20 8 11 1022.0 - 0.0
27/05:00pm 19.5 16.2 9.7 53 5.2 ENE 17 24 9 13 1021.5 - 0.0
27/04:30pm 22.3 18.8 3.4 29 9.1 SE 11 13 6 7 1020.9 - 0.0
27/04:00pm 22.7 18.8 3.3 28 9.3 SE 13 19 7 10 1020.7 - 0.0
27/03:30pm 23.1 19.6 3.6 28 9.5 SE 11 17 6 9 1020.5 - 0.0
27/03:00pm 23.1 19.6 3.6 28 9.4 S 11 17 6 9 1020.6 1020.5 0.0
27/02:30pm 23.2 19.1 4.2 29 9.3 SSE 15 20 8 11 1020.5 - 0.0
27/02:00pm 23.1 19.0 6.0 33 8.7 S 17 26 9 14 1020.7 - 0.0
27/01:30pm 22.4 19.2 4.9 32 8.7 S 11 19 6 10 1021.0 - 0.0
27/01:00pm 22.2 18.4 5.6 34 8.3 S 15 20 8 11 1021.2 - 0.0
27/12:30pm 22.2 17.4 5.6 34 8.3 S 20 32 11 17 1021.6 - 0.0
27/12:00pm 21.6 17.9 6.3 37 7.7 S 15 24 8 13 1022.1 1022.0 0.0
27/11:30am 21.4 18.9 9.6 47 6.3 SSW 13 20 7 11 1022.8 - 0.0
27/11:00am 20.6 17.1 11.0 54 5.3 W 20 24 11 13 1023.3 - 0.0
27/10:30am 19.4 16.2 11.4 60 4.4 WSW 19 24 10 13 1023.8 - 0.0
27/10:00am 18.3 15.9 12.7 70 3.1 WSW 17 20 9 11 1024.0 - 0.0
27/09:30am 17.8 15.1 13.5 76 2.4 WSW 20 26 11 14 1024.0 - 0.0
27/09:00am 16.7 14.0 13.4 81 1.8 WSW 20 28 11 15 1023.8 1023.7 10.8
27/08:30am 15.8 15.6 13.5 86 1.3 SW 7 9 4 5 1023.7 - 10.8
27/08:00am 14.5 14.1 13.0 91 0.8 SW 7 11 4 6 1023.7 - 10.8
27/07:30am 13.4 13.0 12.5 94 0.5 WSW 6 7 3 4 1023.6 - 10.8
27/07:00am 11.8 12.1 10.9 94 0.5 CALM 0 6 0 3 1023.4 - 10.8
27/06:30am 12.5 11.9 11.7 95 0.4 SSW 6 9 3 5 1023.2 - 10.8
27/06:00am 12.9 12.2 12.1 95 0.4 SW 7 11 4 6 1023.0 1022.9 10.8
27/05:30am 13.0 12.0 12.2 95 0.4 SSW 9 11 5 6 1022.6 - 10.6
27/05:00am 13.2 12.2 12.4 95 0.4 SSW 9 13 5 7 1022.5 - 10.6
27/04:30am 13.6 12.4 12.8 95 0.4 S 11 13 6 7 1022.2 - 10.6
27/04:00am 14.1 12.7 13.3 95 0.4 SW 13 17 7 9 1022.1 - 10.6
27/03:30am 13.8 13.5 13.2 96 0.3 SSW 7 13 4 7 1022.3 - 10.6
27/03:00am 13.5 12.7 12.9 96 0.3 W 9 15 5 8 1022.5 1022.4 10.6
27/02:37am 13.9 15.0 13.4 97 0.3 CALM 0 0 0 0 1022.7 - 10.6
27/02:30am 13.8 14.8 13.2 96 0.3 CALM 0 0 0 0 1022.7 - 10.6
27/02:17am 13.3 13.8 12.7 96 0.3 E 2 6 1 3 1022.7 - 10.6
27/02:00am 14.0 15.1 13.4 96 0.3 CALM 0 6 0 3 1022.8 - 10.6
27/01:30am 14.2 14.6 13.6 96 0.3 SW 4 7 2 4 1022.8 - 10.6
27/01:00am 14.7 14.9 14.2 97 0.3 SW 6 7 3 4 1023.0 - 10.6
27/12:30am 14.7 14.7 14.1 96 0.3 SW 7 11 4 6 1023.3 - 10.6
27/12:05am 15.0 15.1 14.5 97 0.3 S 7 9 4 5 1023.4 - 10.6
27/12:00am 15.0 15.1 14.5 97 0.3 SSW 7 9 4 5 1023.4 1023.3 10.6
 
Date/Time
EST
Temp
°C
App
Temp
°C
Dew
Point
Rel
Hum
%
Delta-T
°C
Wind Press
QNH
hPa
Press
MSL
hPa
Rain
since 9 am
mm
Dir
 
Spd
km/h
Gust
km/h
Spd
kts
Gust
kts
26/11:38pm 15.1 15.3 14.6 97 0.3 SSW 7 7 4 4 1023.5 - 10.6
26/11:30pm 15.1 15.3 14.6 97 0.3 SSW 7 7 4 4 1023.6 - 10.6
26/11:00pm 15.3 15.1 14.8 97 0.3 SSW 9 11 5 6 1023.8 - 10.6
26/10:30pm 15.6 17.2 15.0 96 0.3 CALM 0 6 0 3 1024.0 - 10.4
26/10:20pm 15.6 17.2 15.0 96 0.3 CALM 0 0 0 0 1024.0 - 10.4
26/10:00pm 15.4 17.0 14.8 96 0.3 CALM 0 0 0 0 1024.1 - 10.4
26/09:51pm 15.5 17.0 14.7 95 0.5 CALM 0 0 0 0 1024.2 - 10.4
26/09:30pm 16.0 17.4 15.4 96 0.3 S 2 6 1 3 1024.1 - 10.4
26/09:00pm 15.9 16.5 15.3 96 0.3 WSW 6 9 3 5 1024.5 1024.4 10.4
26/08:30pm 15.9 16.9 15.3 96 0.3 W 4 7 2 4 1024.5 - 10.4
26/08:00pm 15.6 16.8 14.8 95 0.5 N 2 6 1 3 1024.5 - 10.4
26/07:30pm 16.1 16.5 15.3 95 0.5 NNE 7 7 4 4 1024.4 - 10.4
26/07:00pm 16.1 17.7 14.8 92 0.7 CALM 0 0 0 0 1024.6 - 10.4
26/06:30pm 16.7 18.6 15.7 94 0.6 CALM 0 0 0 0 1024.3 - 10.4
26/06:00pm 17.0 16.4 15.7 92 0.8 ENE 13 15 7 8 1023.4 1023.3 10.4
26/05:30pm 16.6 15.2 15.5 93 0.6 N 17 20 9 11 1023.4 - 10.4
26/05:13pm 16.9 16.0 15.8 93 0.6 N 15 19 8 10 1023.6 - 10.2
26/05:00pm 17.1 17.1 15.3 89 1.0 S 9 26 5 14 1023.7 - 10.0
26/04:49pm 17.7 14.5 15.3 86 1.4 WSW 26 32 14 17 1023.6 - 2.8

Other Formats:

Comma delimited format used in spreadsheet applications
http://www.bom.gov.au/fwo/IDQ60801/IDQ60801.94575.axf

JavaScript Object Notation format (JSON) in row-major order
http://www.bom.gov.au/fwo/IDQ60801/IDQ60801.94575.json